createdAt,value
2022-11-16T00:01:56.635Z,104.20
2022-11-16T00:05:23.058Z,103.40
2022-11-16T00:09:18.104Z,100.10
2022-11-16T00:12:40.236Z,100.00
2022-11-16T00:16:36.980Z,92.70
2022-11-16T00:20:17.268Z,102.50
2022-11-16T00:23:39.004Z,101.30
2022-11-16T00:27:35.381Z,100.80
2022-11-16T00:31:02.138Z,94.90
2022-11-16T00:34:34.507Z,91.00
2022-11-16T00:38:12.282Z,95.10
2022-11-16T00:41:50.436Z,88.90
2022-11-16T00:45:27.961Z,83.60
2022-11-16T00:49:06.232Z,95.00
2022-11-16T00:53:01.795Z,99.70
2022-11-16T00:56:23.929Z,95.60
2022-11-16T01:00:20.576Z,103.90
2022-11-16T01:03:42.359Z,95.00
2022-11-16T01:07:20.127Z,102.20
2022-11-16T01:11:36.694Z,102.40
2022-11-16T01:15:19.246Z,96.00
2022-11-16T01:19:00.108Z,108.00
2022-11-16T01:22:41.595Z,109.10
2022-11-16T01:26:22.714Z,95.40
2022-11-16T01:29:45.657Z,96.70
2022-11-16T01:33:41.092Z,92.20
2022-11-16T01:37:09.277Z,99.80
2022-11-16T01:40:46.932Z,92.20
2022-11-16T01:44:43.458Z,99.10
2022-11-16T01:48:13.707Z,99.10
2022-11-16T01:52:12.946Z,90.80
2022-11-16T01:55:37.147Z,84.90
2022-11-16T01:59:14.885Z,83.30
2022-11-16T02:02:50.777Z,85.20
2022-11-16T02:06:57.126Z,75.60
2022-11-16T02:10:38.969Z,79.30
2022-11-16T02:14:38.205Z,79.10
2022-11-16T02:18:19.231Z,83.50
2022-11-16T02:21:46.468Z,79.30
2022-11-16T02:25:36.684Z,85.00
2022-11-16T02:29:11.318Z,80.20
2022-11-16T02:33:11.284Z,75.10
2022-11-16T02:36:37.068Z,73.60
2022-11-16T02:40:14.972Z,90.40
2022-11-16T02:44:23.891Z,91.00
2022-11-16T02:47:47.698Z,97.50
2022-11-16T02:51:27.004Z,74.80
2022-11-16T02:55:19.771Z,81.30
2022-11-16T02:59:00.646Z,78.10
2022-11-16T03:02:38.054Z,78.70
2022-11-16T03:06:18.145Z,78.30
2022-11-16T03:09:43.971Z,82.20
2022-11-16T03:13:23.554Z,84.70
2022-11-16T03:16:58.063Z,79.90
2022-11-16T03:20:38.167Z,80.00
2022-11-16T03:24:12.330Z,72.60
2022-11-16T03:28:20.861Z,71.50
2022-11-16T03:31:54.437Z,74.20
2022-11-16T03:35:28.010Z,70.40
2022-11-16T03:39:05.812Z,82.00
2022-11-16T03:42:39.102Z,82.80
2022-11-16T03:46:34.410Z,78.60
2022-11-16T03:49:56.316Z,80.00
2022-11-16T03:53:53.398Z,68.20
2022-11-16T03:57:19.144Z,66.60
2022-11-16T04:00:53.624Z,77.10
2022-11-16T04:05:08.057Z,79.70
2022-11-16T04:09:07.255Z,87.60
2022-11-16T04:12:48.835Z,82.10
2022-11-16T04:16:48.560Z,112.00
2022-11-16T04:20:47.958Z,105.50
2022-11-16T04:24:17.803Z,98.30
2022-11-16T04:28:07.137Z,77.80
2022-11-16T04:32:08.641Z,87.70
2022-11-16T04:35:49.283Z,80.30
2022-11-16T04:39:11.767Z,80.90
2022-11-16T04:43:09.514Z,78.20
2022-11-16T04:47:07.880Z,70.90
2022-11-16T04:50:48.732Z,75.50
2022-11-16T04:54:30.144Z,76.60
2022-11-16T04:57:53.140Z,81.20
2022-11-16T05:01:49.512Z,79.90
2022-11-16T05:05:14.069Z,76.30
2022-11-16T05:08:50.864Z,78.90
2022-11-16T05:12:47.469Z,77.00
2022-11-16T05:16:10.807Z,76.40
2022-11-16T05:20:28.653Z,78.10
2022-11-16T05:24:31.874Z,73.40
2022-11-16T05:27:54.071Z,77.90
2022-11-16T05:31:33.999Z,81.50
2022-11-16T05:35:09.172Z,78.10
2022-11-16T05:38:46.810Z,76.90
2022-11-16T05:42:24.788Z,67.50
2022-11-16T05:46:01.968Z,62.90
2022-11-16T05:49:56.458Z,65.30
2022-11-16T05:53:18.376Z,69.20
2022-11-16T06:10:30.837Z,41.50
2022-11-16T06:14:12.079Z,38.40
2022-11-16T06:17:33.971Z,32.70
2022-11-16T06:21:30.764Z,30.80
2022-11-16T06:24:52.524Z,32.10
2022-11-16T06:28:49.179Z,36.10
2022-11-16T06:32:31.032Z,25.70
2022-11-16T06:35:52.651Z,26.20
2022-11-16T06:39:29.908Z,23.70
2022-11-16T06:43:07.682Z,25.40
2022-11-16T06:47:04.187Z,17.50
2022-11-16T06:50:26.491Z,23.40
2022-11-16T06:54:04.145Z,24.20
2022-11-16T06:58:00.802Z,24.20
2022-11-16T07:01:23.745Z,18.60
2022-11-16T07:05:03.726Z,25.70
2022-11-16T07:08:39.705Z,14.00
2022-11-16T07:12:16.623Z,12.90
2022-11-16T07:15:54.340Z,25.10
2022-11-16T07:19:50.833Z,18.10
2022-11-16T07:23:14.345Z,13.70
2022-11-16T07:27:08.818Z,13.50
2022-11-16T07:30:50.402Z,14.80
2022-11-16T07:34:37.689Z,15.40
2022-11-16T07:38:06.349Z,8.70
2022-11-16T07:42:02.972Z,8.50
2022-11-16T07:45:40.279Z,8.00
2022-11-16T07:49:37.089Z,9.60
2022-11-16T07:53:05.768Z,8.40
2022-11-16T07:57:02.397Z,8.20
2022-11-16T08:00:24.845Z,8.20
2022-11-16T08:04:02.730Z,6.50
2022-11-16T08:07:39.616Z,7.80
2022-11-16T08:11:36.053Z,6.90
2022-11-16T08:15:16.267Z,6.40
2022-11-16T08:18:56.819Z,10.90
2022-11-16T08:22:18.361Z,10.40
2022-11-16T08:26:17.585Z,10.60
2022-11-16T08:29:42.579Z,9.50
2022-11-16T08:33:21.549Z,13.10
2022-11-16T08:36:57.898Z,9.80
2022-11-16T08:40:37.171Z,9.60
2022-11-16T08:44:32.349Z,9.40
2022-11-16T08:48:03.462Z,8.50
2022-11-16T08:51:34.680Z,8.10
2022-11-16T08:55:14.015Z,6.00
2022-11-16T08:58:58.191Z,8.90
2022-11-16T09:02:27.919Z,6.30
2022-11-16T09:06:07.084Z,5.90
2022-11-16T09:09:43.147Z,7.50
2022-11-16T09:13:39.955Z,6.20
2022-11-16T09:17:01.631Z,4.20
2022-11-16T09:20:58.243Z,8.60
2022-11-16T09:24:21.248Z,7.60
2022-11-16T09:27:57.637Z,6.00
2022-11-16T09:31:37.290Z,6.80
2022-11-16T09:35:12.931Z,9.20
2022-11-16T09:43:18.011Z,10.10
2022-11-16T09:47:01.489Z,9.70
2022-11-16T09:50:49.641Z,10.20
2022-11-16T09:54:19.211Z,9.00
2022-11-16T09:58:15.651Z,9.20
2022-11-16T10:02:14.811Z,7.20
2022-11-16T10:06:19.395Z,7.90
2022-11-16T10:09:42.148Z,8.40
2022-11-16T10:13:38.251Z,7.50
2022-11-16T10:17:26.465Z,6.60
2022-11-16T10:21:12.684Z,8.90
2022-11-16T10:25:06.657Z,7.30
2022-11-16T10:29:05.762Z,5.70
2022-11-16T10:32:58.930Z,8.50
2022-11-16T10:36:27.110Z,5.50
2022-11-16T10:40:29.985Z,8.00
2022-11-16T10:44:38.109Z,7.50
2022-11-16T10:48:18.294Z,7.70
2022-11-16T10:51:41.088Z,5.30
2022-11-16T10:55:21.986Z,5.30
2022-11-16T10:59:18.501Z,6.30
2022-11-16T11:02:59.419Z,5.60
2022-11-16T11:06:40.971Z,4.70
2022-11-16T11:10:02.804Z,3.30
2022-11-16T11:13:40.279Z,3.50
2022-11-16T11:17:18.050Z,5.10
2022-11-16T11:21:20.363Z,3.30
2022-11-16T11:25:02.863Z,3.40
2022-11-16T11:28:32.992Z,3.70
2022-11-16T11:32:24.823Z,3.30
2022-11-16T11:36:21.559Z,2.90
2022-11-16T11:39:44.977Z,3.10
2022-11-16T11:43:24.849Z,3.70
2022-11-16T11:51:27.704Z,2.50
2022-11-16T11:55:18.341Z,4.70
2022-11-16T11:58:59.914Z,2.60
2022-11-16T12:02:43.291Z,3.10
2022-11-16T12:06:19.729Z,5.70
2022-11-16T12:10:27.190Z,2.70
2022-11-16T12:14:07.889Z,6.20
2022-11-16T12:17:55.415Z,5.20
2022-11-16T12:21:35.696Z,5.00
2022-11-16T12:25:22.402Z,2.90
2022-11-16T12:29:03.676Z,5.00
2022-11-16T12:32:53.830Z,4.30
2022-11-16T12:36:44.887Z,5.10
2022-11-16T12:40:43.001Z,2.90
2022-11-16T12:44:12.746Z,5.20
2022-11-16T12:48:09.717Z,2.90
2022-11-16T12:51:53.961Z,6.40
2022-11-16T12:56:15.831Z,4.40
2022-11-16T13:00:02.572Z,12.90
2022-11-16T13:03:53.844Z,4.10
2022-11-16T13:07:24.601Z,7.30
2022-11-16T13:11:04.888Z,6.90
2022-11-16T13:14:38.988Z,4.40
2022-11-16T13:18:15.383Z,5.50
2022-11-16T13:22:13.792Z,4.10
2022-11-16T13:25:51.036Z,2.80
2022-11-16T13:29:39.507Z,3.00
2022-11-16T13:33:37.776Z,3.40
2022-11-16T13:37:00.238Z,2.60
2022-11-16T13:40:38.264Z,3.80
2022-11-16T13:44:20.190Z,3.30
2022-11-16T13:48:25.084Z,4.70
2022-11-16T13:52:22.602Z,2.70
2022-11-16T13:56:06.388Z,7.70
2022-11-16T13:59:31.077Z,5.40
2022-11-16T14:03:37.716Z,5.30
2022-11-16T14:07:00.541Z,4.70
2022-11-16T14:10:37.249Z,4.50
2022-11-16T14:15:12.630Z,4.00
2022-11-16T14:18:37.335Z,5.10
2022-11-16T14:22:21.255Z,3.80
2022-11-16T14:26:12.632Z,5.20
2022-11-16T14:29:46.439Z,7.60
2022-11-16T14:33:34.335Z,5.90
2022-11-16T14:37:21.017Z,6.20
2022-11-16T14:41:05.664Z,5.50
2022-11-16T14:44:47.028Z,4.70
2022-11-16T14:48:28.548Z,5.40
2022-11-16T14:51:55.106Z,7.40
2022-11-16T14:55:46.824Z,8.00
2022-11-16T14:59:16.793Z,6.40
2022-11-16T15:03:05.912Z,6.10
2022-11-16T15:06:29.496Z,4.70
2022-11-16T15:10:06.025Z,4.30
2022-11-16T15:13:45.773Z,4.70
2022-11-16T15:17:45.948Z,5.10
2022-11-16T15:21:28.258Z,6.90
2022-11-16T15:24:58.533Z,11.40
2022-11-16T15:28:30.253Z,8.00
2022-11-16T15:32:16.147Z,7.30
2022-11-16T15:36:21.753Z,5.70
2022-11-16T15:39:44.019Z,9.10
2022-11-16T15:44:11.877Z,8.20
2022-11-16T15:47:30.390Z,6.70
2022-11-16T15:51:15.941Z,5.40
2022-11-16T15:55:04.136Z,6.60
2022-11-16T15:58:29.347Z,5.40
2022-11-16T16:02:30.978Z,7.10
2022-11-16T16:05:53.284Z,7.00
2022-11-16T16:09:39.312Z,6.10
2022-11-16T16:13:31.763Z,6.20
2022-11-16T16:16:57.164Z,6.10
2022-11-16T16:20:33.029Z,5.20
2022-11-16T16:24:44.792Z,8.50
2022-11-16T16:28:25.323Z,5.20
2022-11-16T16:31:46.865Z,15.00
2022-11-16T16:35:25.854Z,8.60
2022-11-16T16:39:21.002Z,6.10
2022-11-16T16:43:01.073Z,7.70
2022-11-16T16:46:22.434Z,6.10
2022-11-16T16:50:00.707Z,7.70
2022-11-16T16:53:56.697Z,7.00
2022-11-16T16:57:37.013Z,8.30
2022-11-16T17:01:17.357Z,6.50
2022-11-16T17:04:59.258Z,11.10
2022-11-16T17:08:20.825Z,8.10
2022-11-16T17:11:58.388Z,6.90
2022-11-16T17:15:37.753Z,6.20
2022-11-16T17:19:14.038Z,5.90
2022-11-16T17:22:51.519Z,9.00
2022-11-16T17:26:47.963Z,4.90
2022-11-16T17:30:11.477Z,2.40
2022-11-16T17:33:48.286Z,2.90
2022-11-16T17:37:25.842Z,1.90
2022-11-16T17:41:22.350Z,3.80
2022-11-16T17:44:44.031Z,3.50
2022-11-16T17:48:42.622Z,2.90
2022-11-16T17:52:05.055Z,4.30
2022-11-16T17:55:42.631Z,2.70
2022-11-16T17:59:38.718Z,3.20
2022-11-16T18:03:01.500Z,3.00
2022-11-16T18:06:38.197Z,2.80
2022-11-16T18:10:38.669Z,4.80
2022-11-16T18:14:02.041Z,5.20
2022-11-16T18:17:56.769Z,1.90
2022-11-16T18:21:20.751Z,2.90
2022-11-16T18:24:56.397Z,3.50
2022-11-16T18:28:34.256Z,4.60
2022-11-16T18:32:30.739Z,3.70
2022-11-16T18:35:52.443Z,2.70
2022-11-16T18:39:31.183Z,4.20
2022-11-16T18:43:26.646Z,5.10
2022-11-16T18:46:47.897Z,7.50
2022-11-16T18:50:27.117Z,7.70
2022-11-16T18:54:03.510Z,7.90
2022-11-16T18:57:41.016Z,4.00
2022-11-16T19:01:23.317Z,4.70
2022-11-16T19:05:15.425Z,3.00
2022-11-16T19:08:38.761Z,3.40
2022-11-16T19:12:14.692Z,7.20
2022-11-16T19:15:55.835Z,5.90
2022-11-16T19:19:30.123Z,8.10
2022-11-16T19:23:26.505Z,5.10
2022-11-16T19:27:06.733Z,7.00
2022-11-16T19:30:27.939Z,8.60
2022-11-16T19:34:10.552Z,4.20
2022-11-16T19:37:43.340Z,7.20
2022-11-16T19:41:22.644Z,9.30
2022-11-16T19:44:58.793Z,7.60
2022-11-16T19:48:37.290Z,5.60
2022-11-16T19:52:33.047Z,4.70
2022-11-16T19:55:55.172Z,8.20
2022-11-16T19:59:32.257Z,5.50
2022-11-16T20:03:09.896Z,9.00
2022-11-16T20:06:47.777Z,5.70
2022-11-16T20:10:25.244Z,8.80
2022-11-16T20:14:05.725Z,9.10
2022-11-16T20:17:40.616Z,6.50
2022-11-16T20:21:40.325Z,5.30
2022-11-16T20:25:01.897Z,7.70
2022-11-16T20:28:42.731Z,6.50
2022-11-16T20:32:17.259Z,10.10
2022-11-16T20:36:13.599Z,8.80
2022-11-16T20:39:35.429Z,7.30
2022-11-16T20:43:14.452Z,8.90
2022-11-16T20:47:10.187Z,7.70
2022-11-16T20:50:32.310Z,6.90
2022-11-16T20:54:09.643Z,13.90
2022-11-16T20:57:47.326Z,8.70
2022-11-16T21:01:47.987Z,7.90
2022-11-16T21:05:11.411Z,6.90
2022-11-16T21:09:06.918Z,4.20
2022-11-16T21:12:47.228Z,6.90
2022-11-16T21:16:30.370Z,9.50
2022-11-16T21:20:20.088Z,4.80
2022-11-16T21:23:39.083Z,10.90
2022-11-16T21:27:12.376Z,5.30
2022-11-16T21:31:01.546Z,6.60
2022-11-16T21:34:46.607Z,13.90
2022-11-16T21:38:08.632Z,8.80
2022-11-16T21:41:46.352Z,10.50
2022-11-16T21:45:23.926Z,6.50
2022-11-16T21:49:01.416Z,6.00
2022-11-16T21:52:41.892Z,5.40
2022-11-16T21:56:18.975Z,6.70
2022-11-16T22:00:14.405Z,7.20
2022-11-16T22:03:38.335Z,6.00
2022-11-16T22:07:36.007Z,5.90
2022-11-16T22:14:58.713Z,5.50
2022-11-16T22:18:35.314Z,3.80
2022-11-16T22:22:31.432Z,6.10
2022-11-16T22:25:53.280Z,7.50
2022-11-16T22:29:49.518Z,3.90
2022-11-16T22:33:11.207Z,4.90
2022-11-16T22:37:08.243Z,3.30
2022-11-16T22:53:44.125Z,9.70
2022-11-16T22:57:21.832Z,4.20
2022-11-16T23:00:59.502Z,5.40
2022-11-16T23:04:55.992Z,5.00
2022-11-16T23:08:36.609Z,3.40
2022-11-16T23:12:16.884Z,2.90
2022-11-16T23:16:03.767Z,2.10
2022-11-16T23:19:45.465Z,2.80
2022-11-16T23:23:36.510Z,2.00
2022-11-16T23:27:20.003Z,5.20
2022-11-16T23:30:42.742Z,1.90
2022-11-16T23:34:38.570Z,1.10
2022-11-16T23:38:10.309Z,1.80
2022-11-16T23:41:56.413Z,1.50
2022-11-16T23:45:20.561Z,4.00
2022-11-16T23:48:57.266Z,1.20
2022-11-16T23:52:34.217Z,1.20
2022-11-16T23:56:12.272Z,1.30
